Baie-Comeau, Canada
Current Conditions -  °F | °C
As of 10:00 AM on Wednesday 22 Oct 2014 (Local Time) from CYBC Reporting Station
Clear Clear  
Wind Chill: 37°   Ceiling: Unl
Heat Index: 43°   Visibility: 9mi
Dew Point: 28°   Wind: 10mph
Humidity: 57%   Direction: 60°ENE
Pressure: 30.53"   Gusts: NA
Location:  49.22°N, 68.15°W
Report Text: CYBC 221400Z AUTO 06009KT 9SM CLR 06/M02 A3053 RMK TS/LTNG TEMPO UNAVBL SLP339
Loading
Personal Weather Stations






























Interactive Weather Map New forecast layout! Learn more

10-Day Weather Forecast

Advertisements
Track Severe Weather on mobile